Latest Weather Observations for Ivanhoe Airport

IDN60801

Issued at 11:35 am EST Sunday 21 September 2014 (issued every 30 minutes, with the page automatically refreshed every 10 minutes)

About weather observations | Map of weather stations | Latest weather observations for NSW | Other Formats
Station Details ID: 049000 Name: IVANHOE AERODROME AWS Lat: -32.88 Lon: 144.31 Height: 100.0 m
Data from the previous 72 hours. | See also: Recent months at Ivanhoe Airport
Date/Time
EST
Temp
°C
App
Temp
°C
Dew
Point
Rel
Hum
%
Delta-T
°C
Wind Press
QNH
hPa
Press
MSL
hPa
Rain
since 9 am
mm
Dir
 
Spd
km/h
Gust
km/h
Spd
kts
Gust
kts
21/11:30am 19.1 15.9 2.9 34 7.5 SSE 9 17 5 9 1028.3 1028.2 0.0
21/11:00am 18.5 15.0 3.6 37 7.0 SE 11 19 6 10 1028.6 1028.5 0.0
21/10:30am 17.6 13.8 3.9 40 6.5 S 13 19 7 10 1029.0 1028.9 0.0
21/10:00am 16.9 12.8 4.6 44 5.8 S 15 20 8 11 1029.3 1029.2 0.0
21/09:30am 15.5 11.2 5.1 50 4.9 S 17 22 9 12 1029.5 1029.4 0.0
21/09:00am 14.5 10.1 5.0 53 4.4 S 17 26 9 14 1029.6 1029.5 0.0
21/08:30am 13.1 9.5 5.0 58 3.8 S 13 19 7 10 1029.4 1029.3 0.0
21/08:00am 11.3 6.9 4.7 64 3.0 S 17 22 9 12 1029.0 1028.9 0.0
21/07:30am 9.5 5.7 3.9 68 2.5 S 13 19 7 10 1028.4 1028.3 0.0
21/07:00am 6.3 2.6 2.2 75 1.7 S 11 13 6 7 1027.9 1027.8 0.0
21/06:30am 4.6 0.3 0.9 77 1.4 S 13 13 7 7 1027.8 1027.7 0.0
21/06:00am 4.1 0.1 0.4 77 1.4 SSW 11 13 6 7 1027.5 1027.4 0.0
21/05:30am 5.1 1.6 1.0 75 1.6 S 9 11 5 6 1027.1 1027.0 0.0
21/05:00am 5.8 1.9 1.3 73 1.8 S 11 13 6 7 1026.5 1026.5 0.0
21/04:30am 6.6 3.1 1.5 70 2.0 SSE 9 11 5 6 1026.4 1026.4 0.0
21/04:00am 7.4 4.0 1.9 68 2.2 SSE 9 11 5 6 1026.3 1026.3 0.0
21/03:30am 8.2 4.5 2.2 66 2.5 SE 11 13 6 7 1026.1 1026.0 0.0
21/03:00am 8.5 4.7 1.9 63 2.7 SE 11 15 6 8 1026.2 1026.1 0.0
21/02:30am 9.3 5.2 2.4 62 2.9 SE 13 17 7 9 1026.4 1026.4 0.0
21/02:00am 9.6 5.5 2.5 61 3.0 SE 13 17 7 9 1026.4 1026.4 0.0
21/01:30am 9.8 5.6 1.9 58 3.3 SSE 13 20 7 11 1026.6 1026.6 0.0
21/01:00am 9.5 5.6 0.9 55 3.5 SSE 11 15 6 8 1026.5 1026.5 0.0
21/12:30am 9.6 5.1 0.0 51 3.8 SSE 13 17 7 9 1026.2 1026.1 0.0
21/12:00am 10.0 5.8 -0.8 47 4.3 SSE 11 15 6 8 1026.5 1026.5 0.0
 
Date/Time
EST
Temp
°C
App
Temp
°C
Dew
Point
Rel
Hum
%
Delta-T
°C
Wind Press
QNH
hPa
Press
MSL
hPa
Rain
since 9 am
mm
Dir
 
Spd
km/h
Gust
km/h
Spd
kts
Gust
kts
20/11:30pm 11.4 6.1 -0.7 43 4.9 SSE 17 22 9 12 1026.4 1026.4 0.0
20/11:00pm 10.5 5.8 -1.5 43 4.7 S 13 15 7 8 1026.4 1026.4 0.0
20/10:30pm 11.3 6.6 -1.5 41 5.1 S 13 15 7 8 1026.3 1026.3 0.0
20/10:00pm 12.0 7.3 -1.5 39 5.3 S 13 15 7 8 1026.3 1026.3 0.0
20/09:30pm 13.2 8.5 -1.5 36 5.9 S 13 17 7 9 1026.3 1026.3 0.0
20/09:00pm 14.0 9.4 -0.8 36 6.1 S 13 15 7 8 1026.1 1026.0 0.0
20/08:30pm 14.4 9.9 -0.5 36 6.2 S 13 15 7 8 1025.9 1025.8 0.0
20/08:00pm 14.7 10.2 -0.6 35 6.4 S 13 13 7 7 1025.5 1025.4 0.0
20/07:30pm 15.7 11.2 -0.1 34 6.7 S 13 15 7 8 1025.3 1025.2 0.0
20/07:00pm 16.9 12.5 0.1 32 7.2 S 13 17 7 9 1024.9 1024.8 0.0
20/06:30pm 17.7 13.6 -0.5 29 7.8 S 11 15 6 8 1024.7 1024.6 0.0
20/06:00pm 19.4 14.6 -0.1 27 8.5 S 15 22 8 12 1024.4 1024.3 0.0
20/05:30pm 20.1 14.9 0.0 26 8.9 S 17 24 9 13 1024.0 1023.9 0.0
20/05:00pm 20.8 15.9 -0.5 24 9.4 S 15 24 8 13 1023.7 1023.6 0.0
20/04:30pm 21.0 15.8 0.2 25 9.3 S 17 26 9 14 1023.5 1023.4 0.0
20/04:00pm 20.7 15.5 0.0 25 9.2 S 17 26 9 14 1023.5 1023.4 0.0
20/03:30pm 21.0 15.4 0.2 25 9.3 S 19 30 10 16 1023.5 1023.4 0.0
20/03:00pm 20.8 15.0 0.1 25 9.2 SE 20 28 11 15 1023.6 1023.5 0.0
20/02:30pm 21.3 16.2 1.0 26 9.3 S 17 24 9 13 1023.8 1023.7 0.0
20/02:00pm 20.9 15.5 1.2 27 9.0 S 19 30 10 16 1024.1 1024.0 0.0
20/01:30pm 20.6 15.0 1.0 27 8.9 S 20 24 11 13 1024.5 1024.4 0.0
20/01:00pm 19.8 14.5 1.7 30 8.3 SSE 19 28 10 15 1025.0 1024.9 0.0
20/12:30pm 19.5 14.1 1.5 30 8.2 S 19 33 10 18 1025.5 1025.4 0.0
20/12:00pm 18.5 13.5 1.5 32 7.6 S 17 30 9 16 1025.9 1025.8 0.0
20/11:30am 18.3 13.3 1.3 32 7.6 S 17 30 9 16 1026.1 1026.0 0.0
20/11:00am 17.6 12.6 1.6 34 7.1 S 17 30 9 16 1026.4 1026.4 0.0
20/10:30am 16.8 12.3 2.4 38 6.5 SSE 15 26 8 14 1026.5 1026.5 0.0
20/10:00am 16.6 12.6 3.0 40 6.2 SSE 13 26 7 14 1026.5 1026.5 0.0
20/09:30am 15.1 11.1 3.0 44 5.5 SE 13 19 7 10 1026.7 1026.7 0.0
20/09:00am 14.5 10.2 3.0 46 5.2 SE 15 20 8 11 1026.4 1026.4 0.0
20/08:30am 13.5 9.8 2.4 47 4.9 SE 11 15 6 8 1026.1 1026.0 0.0
20/08:00am 11.4 7.9 1.4 50 4.2 SE 9 15 5 8 1026.0 1025.9 0.0
20/07:30am 8.6 4.1 -0.4 53 3.5 SE 13 17 7 9 1025.7 1025.6 0.0
20/07:00am 5.6 1.2 -2.5 56 2.9 SSE 11 15 6 8 1025.3 1025.2 0.0
20/06:30am 3.3 -0.9 -3.9 59 2.4 S 9 17 5 9 1025.0 1024.9 0.0
20/06:00am 3.6 -1.0 -3.9 58 2.5 SSE 11 22 6 12 1024.7 1024.6 0.0
20/05:30am 4.6 2.3 -2.7 59 2.6 CALM 0 4 0 2 1024.2 1024.1 0.0
20/05:00am 5.5 1.9 -2.3 57 2.8 E 7 7 4 4 1023.8 1023.7 0.0
20/04:30am 5.9 2.2 -2.9 53 3.2 E 7 9 4 5 1023.4 1023.3 0.0
20/04:00am 6.6 2.6 -2.5 52 3.3 E 9 9 5 5 1023.3 1023.2 0.0
20/03:30am 6.4 2.0 -2.7 52 3.3 E 11 11 6 6 1023.2 1023.1 0.0
20/03:00am 6.6 2.1 -3.1 50 3.5 ESE 11 13 6 7 1023.2 1023.1 0.0
20/02:30am 6.8 1.9 -3.1 49 3.6 SE 13 13 7 7 1023.4 1023.3 0.0
20/02:00am 7.3 2.8 -3.0 48 3.7 SSE 11 15 6 8 1023.6 1023.5 0.0
20/01:30am 7.6 3.1 -3.3 46 4.0 S 11 13 6 7 1023.8 1023.7 0.0
20/01:00am 8.1 4.0 -2.8 46 4.0 S 9 11 5 6 1023.8 1023.7 0.0
20/12:30am 8.4 4.0 -2.8 45 4.2 S 11 13 6 7 1023.8 1023.7 0.0
20/12:00am 8.7 4.7 -2.3 46 4.1 S 9 11 5 6 1023.8 1023.7 0.0
 
Date/Time
EST
Temp
°C
App
Temp
°C
Dew
Point
Rel
Hum
%
Delta-T
°C
Wind Press
QNH
hPa
Press
MSL
hPa
Rain
since 9 am
mm
Dir
 
Spd
km/h
Gust
km/h
Spd
kts
Gust
kts
19/11:30pm 9.2 5.2 -2.1 45 4.3 S 9 11 5 6 1023.8 1023.7 0.0
19/11:00pm 9.4 5.4 -2.2 44 4.4 S 9 11 5 6 1023.9 1023.8 0.0
19/10:30pm 10.4 6.5 -1.6 43 4.7 S 9 11 5 6 1024.0 1023.9 0.0
19/10:00pm 11.0 7.1 -1.7 41 5.0 S 9 11 5 6 1024.0 1023.9 0.0
19/09:30pm 11.6 7.7 -1.5 40 5.2 S 9 11 5 6 1024.1 1024.0 0.0
19/09:00pm 11.7 7.8 -1.8 39 5.3 S 9 11 5 6 1024.0 1023.9 0.0
19/08:30pm 12.5 8.2 -1.8 37 5.7 S 11 13 6 7 1023.9 1023.8 0.0
19/08:00pm 13.0 9.1 -1.3 37 5.8 S 9 13 5 7 1023.7 1023.6 0.0
19/07:30pm 13.6 9.7 -1.6 35 6.1 S 9 11 5 6 1023.3 1023.2 0.0
19/07:00pm 14.4 10.9 -1.2 34 6.4 S 7 9 4 5 1023.0 1022.9 0.0
19/06:30pm 15.5 12.0 -1.1 32 6.9 S 7 9 4 5 1022.9 1022.8 0.0
19/06:00pm 17.3 13.9 -0.9 29 7.7 S 7 11 4 6 1022.6 1022.5 0.0
19/05:30pm 17.8 13.7 -0.5 29 7.9 S 11 19 6 10 1022.3 1022.2 0.0
19/05:00pm 18.1 13.5 -0.7 28 8.1 SSE 13 17 7 9 1022.2 1022.1 0.0
19/04:30pm 18.7 14.1 -1.2 26 8.5 SW 13 24 7 13 1022.2 1022.1 0.0
19/04:00pm 18.3 13.4 -0.5 28 8.1 S 15 24 8 13 1022.3 1022.2 0.0
19/03:30pm 18.3 13.1 0.0 29 8.0 SW 17 28 9 15 1022.2 1022.1 0.0
19/03:00pm 18.3 12.6 -1.0 27 8.2 SE 19 22 10 12 1022.4 1022.3 0.0
19/02:30pm 18.4 12.6 0.1 29 8.0 S 20 43 11 23 1022.7 1022.6 0.0
19/02:00pm 17.8 13.7 0.0 30 7.7 SW 11 20 6 11 1022.8 1022.7 0.0
19/01:30pm 17.7 13.0 0.8 32 7.5 SSE 15 24 8 13 1023.0 1022.9 0.0
19/01:00pm 17.0 11.9 0.6 33 7.1 SSW 17 24 9 13 1023.4 1023.3 0.0
19/12:30pm 17.9 14.7 1.0 32 7.5 SW 7 19 4 10 1023.6 1023.5 0.0
19/12:00pm 16.6 12.2 0.3 33 7.0 SE 13 26 7 14 1024.1 1024.0 0.0
19/11:30am 16.4 12.8 0.9 35 6.8 SSE 9 17 5 9 1024.5 1024.4 0.0
19/11:00am 15.9 13.0 1.6 38 6.3 SSE 6 15 3 8 1024.8 1024.7 0.0
19/10:30am 15.4 11.7 2.2 41 5.9 S 11 17 6 9 1025.2 1025.1 0.0
19/10:00am 14.7 11.3 1.9 42 5.6 SSE 9 13 5 7 1025.2 1025.1 0.0
19/09:30am 14.0 11.2 2.0 44 5.3 SSE 6 11 3 6 1025.3 1025.2 0.0
19/09:00am 12.5 9.7 1.8 48 4.6 SE 6 11 3 6 1025.1 1025.0 0.0
19/08:30am 11.3 7.8 1.0 49 4.3 SSE 9 13 5 7 1024.9 1024.8 0.0
19/08:00am 10.7 6.7 0.7 50 4.1 SE 11 17 6 9 1024.5 1024.4 0.0
19/07:30am 9.8 6.6 0.7 53 3.7 SSE 7 9 4 5 1024.2 1024.1 0.0
19/07:00am 9.0 5.8 0.5 55 3.4 SSE 7 11 4 6 1023.9 1023.8 0.0
19/06:30am 8.5 4.1 0.2 56 3.3 SSE 13 17 7 9 1023.5 1023.4 0.0
19/06:00am 7.9 4.2 -0.1 57 3.1 SSE 9 9 5 5 1023.3 1023.2 0.0
19/05:30am 8.2 4.9 0.0 56 3.3 SSE 7 9 4 5 1023.2 1023.1 0.0
19/05:00am 8.0 4.7 -0.2 56 3.2 SSE 7 11 4 6 1023.0 1022.9 0.0
19/04:30am 7.9 4.5 -0.3 56 3.2 SSE 7 11 4 6 1022.8 1022.7 0.0
19/04:00am 8.0 4.2 -0.5 55 3.3 SSE 9 11 5 6 1022.7 1022.6 0.0
19/03:30am 8.0 4.2 -0.5 55 3.3 S 9 11 5 6 1022.8 1022.7 0.0
19/03:00am 8.1 4.7 -0.4 55 3.3 S 7 9 4 5 1022.9 1022.8 0.0
19/02:30am 8.0 4.8 -0.5 55 3.3 SSE 6 9 3 5 1023.1 1023.0 0.0
19/02:00am 7.9 4.7 -0.8 54 3.4 SSE 6 7 3 4 1023.2 1023.1 0.0
19/01:30am 8.1 4.7 -0.6 54 3.4 S 7 11 4 6 1023.3 1023.2 0.0
19/01:00am 8.2 4.8 -0.8 53 3.5 S 7 9 4 5 1023.4 1023.3 0.0
19/12:30am 8.3 5.1 -0.7 53 3.5 S 6 7 3 4 1023.5 1023.4 0.0
19/12:00am 8.7 5.3 -0.3 53 3.5 S 7 7 4 4 1023.5 1023.4 0.0
 
Date/Time
EST
Temp
°C
App
Temp
°C
Dew
Point
Rel
Hum
%
Delta-T
°C
Wind Press
QNH
hPa
Press
MSL
hPa
Rain
since 9 am
mm
Dir
 
Spd
km/h
Gust
km/h
Spd
kts
Gust
kts
18/11:30pm 8.7 5.3 -0.6 52 3.7 S 7 7 4 4 1023.8 1023.7 0.0
18/11:00pm 9.2 5.4 -0.7 50 3.9 S 9 9 5 5 1023.8 1023.7 0.0
18/10:30pm 9.8 6.0 -0.7 48 4.2 SSE 9 11 5 6 1024.0 1023.9 0.0
18/10:00pm 10.6 6.4 -0.8 45 4.5 SSE 11 13 6 7 1024.0 1023.9 0.0
18/09:30pm 11.4 6.8 -0.7 43 4.9 SSE 13 17 7 9 1024.1 1024.0 0.0
18/09:00pm 12.3 7.0 -0.6 41 5.2 SSE 17 20 9 11 1023.9 1023.8 0.0
18/08:30pm 11.9 7.6 -1.6 39 5.4 S 11 15 6 8 1023.6 1023.5 0.0
18/08:00pm 12.7 8.0 -1.6 37 5.7 S 13 15 7 8 1023.3 1023.2 0.0
18/07:30pm 13.4 8.7 -1.7 35 6.1 S 13 17 7 9 1023.0 1022.9 0.0
18/07:00pm 13.9 9.2 -1.7 34 6.3 S 13 17 7 9 1022.6 1022.5 0.0
18/06:30pm 14.7 10.6 -3.1 29 7.0 SSW 9 13 5 7 1022.3 1022.2 0.0
18/06:00pm 16.3 12.2 -3.2 26 7.8 SSW 9 15 5 8 1022.1 1022.0 0.0
18/05:30pm 17.5 13.4 -2.7 25 8.3 SW 9 15 5 8 1021.9 1021.8 0.0
18/05:00pm 17.9 12.7 -2.9 24 8.5 SSW 15 20 8 11 1021.7 1021.6 0.0
18/04:30pm 18.4 13.2 -2.5 24 8.7 SW 15 20 8 11 1021.3 1021.2 0.0
18/04:00pm 18.4 14.5 -1.4 26 8.4 WSW 9 19 5 10 1021.3 1021.2 0.0
18/03:30pm 18.4 14.1 -1.4 26 8.4 S 11 20 6 11 1021.6 1021.5 0.0
18/03:00pm 17.7 13.8 -1.5 27 8.1 S 9 19 5 10 1021.7 1021.6 0.0
18/02:30pm 17.5 12.5 -1.2 28 7.9 SSW 15 24 8 13 1021.9 1021.8 0.0
18/02:00pm 17.4 12.9 -0.3 30 7.6 SSW 13 24 7 13 1022.2 1022.1 0.0
18/01:30pm 16.6 11.4 -0.1 32 7.2 SW 17 26 9 14 1022.7 1022.6 0.0
18/01:00pm 16.6 11.8 -0.1 32 7.1 SSW 15 26 8 14 1023.1 1023.0 0.0
18/12:30pm 16.8 12.5 1.3 35 6.9 SSW 13 28 7 15 1023.5 1023.4 0.0
18/12:00pm 15.3 9.8 0.7 37 6.3 WSW 19 24 10 13 1023.9 1023.8 0.0

Other Formats:

Comma delimited format used in spreadsheet applications
http://www.bom.gov.au/fwo/IDN60801/IDN60801.95697.axf

JavaScript Object Notation format (JSON) in row-major order
http://www.bom.gov.au/fwo/IDN60801/IDN60801.95697.json